sensor_id;sensor_type;location;lat;lon;timestamp;temperature;humidity
15937;DHT22;9163;48.818;8.976;2023-07-24T00:00:21;18.20;99.90
15937;DHT22;9163;48.818;8.976;2023-07-24T00:02:50;18.20;99.90
15937;DHT22;9163;48.818;8.976;2023-07-24T00:05:27;18.10;99.90
15937;DHT22;9163;48.818;8.976;2023-07-24T00:07:55;18.00;99.90
15937;DHT22;9163;48.818;8.976;2023-07-24T00:10:23;18.00;99.90
15937;DHT22;9163;48.818;8.976;2023-07-24T00:12:51;17.80;99.90
15937;DHT22;9163;48.818;8.976;2023-07-24T00:15:18;17.70;99.90
15937;DHT22;9163;48.818;8.976;2023-07-24T00:17:45;17.60;99.90
15937;DHT22;9163;48.818;8.976;2023-07-24T00:20:12;17.60;99.90
15937;DHT22;9163;48.818;8.976;2023-07-24T00:22:40;17.60;99.90
15937;DHT22;9163;48.818;8.976;2023-07-24T00:25:07;17.60;99.90
15937;DHT22;9163;48.818;8.976;2023-07-24T00:27:37;17.60;99.90
15937;DHT22;9163;48.818;8.976;2023-07-24T00:30:05;17.70;99.90
15937;DHT22;9163;48.818;8.976;2023-07-24T00:32:33;17.70;99.90
15937;DHT22;9163;48.818;8.976;2023-07-24T00:35:00;17.60;99.90
15937;DHT22;9163;48.818;8.976;2023-07-24T00:37:27;17.60;99.90
15937;DHT22;9163;48.818;8.976;2023-07-24T00:39:54;17.60;99.90
15937;DHT22;9163;48.818;8.976;2023-07-24T00:42:22;17.60;99.90
15937;DHT22;9163;48.818;8.976;2023-07-24T00:44:50;17.60;99.90
15937;DHT22;9163;48.818;8.976;2023-07-24T00:47:18;17.50;99.90
15937;DHT22;9163;48.818;8.976;2023-07-24T00:49:45;17.50;99.90
15937;DHT22;9163;48.818;8.976;2023-07-24T00:52:13;17.50;99.90
15937;DHT22;9163;48.818;8.976;2023-07-24T00:54:41;17.50;99.90
15937;DHT22;9163;48.818;8.976;2023-07-24T00:57:10;17.50;99.90
15937;DHT22;9163;48.818;8.976;2023-07-24T00:59:38;17.50;99.90
15937;DHT22;9163;48.818;8.976;2023-07-24T01:02:06;17.40;99.90
15937;DHT22;9163;48.818;8.976;2023-07-24T01:04:34;17.40;99.90
15937;DHT22;9163;48.818;8.976;2023-07-24T01:07:01;17.30;99.90
15937;DHT22;9163;48.818;8.976;2023-07-24T01:09:28;17.30;99.90
15937;DHT22;9163;48.818;8.976;2023-07-24T01:12:00;17.20;99.90
15937;DHT22;9163;48.818;8.976;2023-07-24T01:14:33;17.20;99.90
15937;DHT22;9163;48.818;8.976;2023-07-24T01:17:06;17.10;99.90
15937;DHT22;9163;48.818;8.976;2023-07-24T01:19:37;17.10;99.90
15937;DHT22;9163;48.818;8.976;2023-07-24T01:22:12;17.10;99.90
15937;DHT22;9163;48.818;8.976;2023-07-24T01:24:52;17.00;99.90
15937;DHT22;9163;48.818;8.976;2023-07-24T01:27:28;17.00;99.90
15937;DHT22;9163;48.818;8.976;2023-07-24T01:29:55;17.10;99.90
15937;DHT22;9163;48.818;8.976;2023-07-24T01:32:22;17.00;99.90
15937;DHT22;9163;48.818;8.976;2023-07-24T01:34:51;16.90;99.90
15937;DHT22;9163;48.818;8.976;2023-07-24T01:37:20;17.00;99.90
15937;DHT22;9163;48.818;8.976;2023-07-24T01:39:49;16.90;99.90
15937;DHT22;9163;48.818;8.976;2023-07-24T01:42:17;16.90;99.90
15937;DHT22;9163;48.818;8.976;2023-07-24T01:44:51;16.90;99.90
15937;DHT22;9163;48.818;8.976;2023-07-24T01:47:18;16.80;99.90
15937;DHT22;9163;48.818;8.976;2023-07-24T01:49:46;16.70;99.90
15937;DHT22;9163;48.818;8.976;2023-07-24T01:52:13;16.70;99.90
15937;DHT22;9163;48.818;8.976;2023-07-24T01:54:40;16.60;99.90
15937;DHT22;9163;48.818;8.976;2023-07-24T01:57:07;16.60;99.90
15937;DHT22;9163;48.818;8.976;2023-07-24T01:59:34;16.50;99.90
15937;DHT22;9163;48.818;8.976;2023-07-24T02:02:03;16.40;99.90
15937;DHT22;9163;48.818;8.976;2023-07-24T02:04:30;16.30;99.90
15937;DHT22;9163;48.818;8.976;2023-07-24T02:06:58;16.30;99.90
15937;DHT22;9163;48.818;8.976;2023-07-24T02:09:25;16.30;99.90
15937;DHT22;9163;48.818;8.976;2023-07-24T02:11:52;16.30;99.90
15937;DHT22;9163;48.818;8.976;2023-07-24T02:14:20;16.30;99.90
15937;DHT22;9163;48.818;8.976;2023-07-24T02:16:47;16.40;99.90
15937;DHT22;9163;48.818;8.976;2023-07-24T02:19:16;16.40;99.90
15937;DHT22;9163;48.818;8.976;2023-07-24T02:21:43;16.40;99.90
15937;DHT22;9163;48.818;8.976;2023-07-24T02:24:10;16.40;99.90
15937;DHT22;9163;48.818;8.976;2023-07-24T02:26:38;16.40;99.90
15937;DHT22;9163;48.818;8.976;2023-07-24T02:29:05;16.50;99.90
15937;DHT22;9163;48.818;8.976;2023-07-24T02:31:32;16.50;99.90
15937;DHT22;9163;48.818;8.976;2023-07-24T02:33:59;16.50;99.90
15937;DHT22;9163;48.818;8.976;2023-07-24T02:36:28;16.40;99.90
15937;DHT22;9163;48.818;8.976;2023-07-24T02:38:55;16.50;99.90
15937;DHT22;9163;48.818;8.976;2023-07-24T02:41:22;16.50;99.90
15937;DHT22;9163;48.818;8.976;2023-07-24T02:43:49;16.40;99.90
15937;DHT22;9163;48.818;8.976;2023-07-24T02:46:17;16.40;99.90
15937;DHT22;9163;48.818;8.976;2023-07-24T02:48:44;16.40;99.90
15937;DHT22;9163;48.818;8.976;2023-07-24T02:51:11;16.30;99.90
15937;DHT22;9163;48.818;8.976;2023-07-24T02:53:40;16.30;99.90
15937;DHT22;9163;48.818;8.976;2023-07-24T02:56:07;16.20;99.90
15937;DHT22;9163;48.818;8.976;2023-07-24T02:58:34;16.20;99.90
15937;DHT22;9163;48.818;8.976;2023-07-24T03:01:05;16.20;99.90
15937;DHT22;9163;48.818;8.976;2023-07-24T03:03:33;16.20;99.90
15937;DHT22;9163;48.818;8.976;2023-07-24T03:06:01;16.20;99.90
15937;DHT22;9163;48.818;8.976;2023-07-24T03:08:28;16.20;99.90
15937;DHT22;9163;48.818;8.976;2023-07-24T03:10:57;16.20;99.90
15937;DHT22;9163;48.818;8.976;2023-07-24T03:13:24;16.20;99.90
15937;DHT22;9163;48.818;8.976;2023-07-24T03:15:52;16.20;99.90
15937;DHT22;9163;48.818;8.976;2023-07-24T03:18:20;16.30;99.90
15937;DHT22;9163;48.818;8.976;2023-07-24T03:20:47;16.20;99.90
15937;DHT22;9163;48.818;8.976;2023-07-24T03:23:14;16.20;99.90
15937;DHT22;9163;48.818;8.976;2023-07-24T03:25:42;16.30;99.90
15937;DHT22;9163;48.818;8.976;2023-07-24T03:28:10;16.20;99.90
15937;DHT22;9163;48.818;8.976;2023-07-24T03:30:38;16.20;99.90
15937;DHT22;9163;48.818;8.976;2023-07-24T03:33:05;16.20;99.90
15937;DHT22;9163;48.818;8.976;2023-07-24T03:35:33;16.20;99.90
15937;DHT22;9163;48.818;8.976;2023-07-24T03:38:01;16.20;99.90
15937;DHT22;9163;48.818;8.976;2023-07-24T03:40:28;16.20;99.90
15937;DHT22;9163;48.818;8.976;2023-07-24T03:42:55;16.10;99.90
15937;DHT22;9163;48.818;8.976;2023-07-24T03:45:24;16.20;99.90
15937;DHT22;9163;48.818;8.976;2023-07-24T03:47:51;16.20;99.90
15937;DHT22;9163;48.818;8.976;2023-07-24T03:50:18;16.20;99.90
15937;DHT22;9163;48.818;8.976;2023-07-24T03:52:45;16.30;99.90
15937;DHT22;9163;48.818;8.976;2023-07-24T03:55:12;16.40;99.90
15937;DHT22;9163;48.818;8.976;2023-07-24T03:57:40;16.50;99.90
15937;DHT22;9163;48.818;8.976;2023-07-24T04:00:08;16.50;99.90
15937;DHT22;9163;48.818;8.976;2023-07-24T04:02:37;16.60;99.90
15937;DHT22;9163;48.818;8.976;2023-07-24T04:05:05;16.60;99.90
15937;DHT22;9163;48.818;8.976;2023-07-24T04:07:33;16.70;99.90
15937;DHT22;9163;48.818;8.976;2023-07-24T04:10:00;16.80;99.90
15937;DHT22;9163;48.818;8.976;2023-07-24T04:12:29;16.80;99.90
15937;DHT22;9163;48.818;8.976;2023-07-24T04:14:56;16.90;99.90
15937;DHT22;9163;48.818;8.976;2023-07-24T04:17:23;17.00;99.90
15937;DHT22;9163;48.818;8.976;2023-07-24T04:19:52;17.10;99.90
15937;DHT22;9163;48.818;8.976;2023-07-24T04:22:19;17.00;99.90
15937;DHT22;9163;48.818;8.976;2023-07-24T04:24:47;17.00;99.90
15937;DHT22;9163;48.818;8.976;2023-07-24T04:27:14;17.00;99.90
15937;DHT22;9163;48.818;8.976;2023-07-24T04:29:41;17.10;99.90
15937;DHT22;9163;48.818;8.976;2023-07-24T04:32:08;17.00;99.90
15937;DHT22;9163;48.818;8.976;2023-07-24T04:34:35;17.00;99.90
15937;DHT22;9163;48.818;8.976;2023-07-24T04:37:05;17.10;99.90
15937;DHT22;9163;48.818;8.976;2023-07-24T04:39:32;17.10;99.90
15937;DHT22;9163;48.818;8.976;2023-07-24T04:42:00;17.20;99.90
15937;DHT22;9163;48.818;8.976;2023-07-24T04:44:27;17.30;99.90
15937;DHT22;9163;48.818;8.976;2023-07-24T04:46:54;17.40;99.90
15937;DHT22;9163;48.818;8.976;2023-07-24T04:49:22;17.40;99.90
15937;DHT22;9163;48.818;8.976;2023-07-24T04:51:50;17.50;99.90
15937;DHT22;9163;48.818;8.976;2023-07-24T04:54:19;17.40;99.90
15937;DHT22;9163;48.818;8.976;2023-07-24T04:56:46;17.50;99.90
15937;DHT22;9163;48.818;8.976;2023-07-24T04:59:13;17.50;99.90
15937;DHT22;9163;48.818;8.976;2023-07-24T05:01:40;17.50;99.90
15937;DHT22;9163;48.818;8.976;2023-07-24T05:04:07;17.40;99.90
15937;DHT22;9163;48.818;8.976;2023-07-24T05:06:35;17.40;99.90
15937;DHT22;9163;48.818;8.976;2023-07-24T05:09:03;17.50;99.90
15937;DHT22;9163;48.818;8.976;2023-07-24T05:11:31;17.50;99.90
15937;DHT22;9163;48.818;8.976;2023-07-24T05:13:59;17.30;99.90
15937;DHT22;9163;48.818;8.976;2023-07-24T05:16:26;17.30;99.90
15937;DHT22;9163;48.818;8.976;2023-07-24T05:18:53;17.20;99.90
15937;DHT22;9163;48.818;8.976;2023-07-24T05:21:21;17.20;99.90
15937;DHT22;9163;48.818;8.976;2023-07-24T05:23:48;17.30;99.90
15937;DHT22;9163;48.818;8.976;2023-07-24T05:26:15;17.40;99.90
15937;DHT22;9163;48.818;8.976;2023-07-24T05:28:44;17.40;99.90
15937;DHT22;9163;48.818;8.976;2023-07-24T05:31:11;17.40;99.90
15937;DHT22;9163;48.818;8.976;2023-07-24T05:33:38;17.50;99.90
15937;DHT22;9163;48.818;8.976;2023-07-24T05:36:06;17.60;99.90
15937;DHT22;9163;48.818;8.976;2023-07-24T05:38:33;17.60;99.90
15937;DHT22;9163;48.818;8.976;2023-07-24T05:41:01;17.60;99.90
15937;DHT22;9163;48.818;8.976;2023-07-24T05:43:30;17.60;99.90
15937;DHT22;9163;48.818;8.976;2023-07-24T05:45:59;17.50;99.90
15937;DHT22;9163;48.818;8.976;2023-07-24T05:48:27;17.40;99.90
15937;DHT22;9163;48.818;8.976;2023-07-24T05:50:54;17.10;99.90
15937;DHT22;9163;48.818;8.976;2023-07-24T05:53:21;17.00;99.90
15937;DHT22;9163;48.818;8.976;2023-07-24T05:55:56;17.00;99.90
15937;DHT22;9163;48.818;8.976;2023-07-24T05:58:24;17.10;99.90
15937;DHT22;9163;48.818;8.976;2023-07-24T06:00:51;17.00;99.90
15937;DHT22;9163;48.818;8.976;2023-07-24T06:03:20;17.10;99.90
15937;DHT22;9163;48.818;8.976;2023-07-24T06:05:50;17.00;99.90
15937;DHT22;9163;48.818;8.976;2023-07-24T06:08:18;17.10;99.90
15937;DHT22;9163;48.818;8.976;2023-07-24T06:10:46;17.20;99.90
15937;DHT22;9163;48.818;8.976;2023-07-24T06:13:14;17.30;99.90
15937;DHT22;9163;48.818;8.976;2023-07-24T06:15:41;17.40;99.90
15937;DHT22;9163;48.818;8.976;2023-07-24T06:18:08;17.40;99.90
15937;DHT22;9163;48.818;8.976;2023-07-24T06:20:37;17.50;99.90
15937;DHT22;9163;48.818;8.976;2023-07-24T06:23:04;17.60;99.90
15937;DHT22;9163;48.818;8.976;2023-07-24T06:25:32;17.60;99.90
15937;DHT22;9163;48.818;8.976;2023-07-24T06:27:59;17.70;99.90
15937;DHT22;9163;48.818;8.976;2023-07-24T06:30:26;17.80;99.90
15937;DHT22;9163;48.818;8.976;2023-07-24T06:32:54;17.80;99.90
15937;DHT22;9163;48.818;8.976;2023-07-24T06:35:21;18.00;99.90
15937;DHT22;9163;48.818;8.976;2023-07-24T06:37:49;18.00;99.90
15937;DHT22;9163;48.818;8.976;2023-07-24T06:40:17;18.00;99.90
15937;DHT22;9163;48.818;8.976;2023-07-24T06:42:45;18.00;99.90
15937;DHT22;9163;48.818;8.976;2023-07-24T06:45:12;18.10;99.90
15937;DHT22;9163;48.818;8.976;2023-07-24T06:47:39;18.00;99.90
15937;DHT22;9163;48.818;8.976;2023-07-24T06:50:07;18.10;99.90
15937;DHT22;9163;48.818;8.976;2023-07-24T06:52:35;18.10;99.90
15937;DHT22;9163;48.818;8.976;2023-07-24T06:55:04;18.20;99.90
15937;DHT22;9163;48.818;8.976;2023-07-24T06:57:31;18.20;99.90
15937;DHT22;9163;48.818;8.976;2023-07-24T06:59:59;18.30;99.90
15937;DHT22;9163;48.818;8.976;2023-07-24T07:02:26;18.40;99.90
15937;DHT22;9163;48.818;8.976;2023-07-24T07:04:54;18.60;99.90
15937;DHT22;9163;48.818;8.976;2023-07-24T07:07:21;18.50;99.90
15937;DHT22;9163;48.818;8.976;2023-07-24T07:09:49;18.60;99.90
15937;DHT22;9163;48.818;8.976;2023-07-24T07:12:17;18.50;99.90
15937;DHT22;9163;48.818;8.976;2023-07-24T07:14:44;18.60;99.90
15937;DHT22;9163;48.818;8.976;2023-07-24T07:17:11;18.60;99.90
15937;DHT22;9163;48.818;8.976;2023-07-24T07:19:39;18.70;99.90
15937;DHT22;9163;48.818;8.976;2023-07-24T07:22:06;18.70;99.90
15937;DHT22;9163;48.818;8.976;2023-07-24T07:24:33;18.80;99.90
15937;DHT22;9163;48.818;8.976;2023-07-24T07:27:01;18.90;99.90
15937;DHT22;9163;48.818;8.976;2023-07-24T07:29:29;18.90;99.90
15937;DHT22;9163;48.818;8.976;2023-07-24T07:31:57;18.90;99.90
15937;DHT22;9163;48.818;8.976;2023-07-24T07:34:25;18.90;99.90
15937;DHT22;9163;48.818;8.976;2023-07-24T07:36:52;18.80;99.90
15937;DHT22;9163;48.818;8.976;2023-07-24T07:39:19;18.80;99.90
15937;DHT22;9163;48.818;8.976;2023-07-24T07:41:46;18.80;99.90
15937;DHT22;9163;48.818;8.976;2023-07-24T07:44:13;18.90;99.90
15937;DHT22;9163;48.818;8.976;2023-07-24T07:46:42;18.70;99.90
15937;DHT22;9163;48.818;8.976;2023-07-24T07:49:09;18.70;99.90
15937;DHT22;9163;48.818;8.976;2023-07-24T07:51:36;18.60;99.90
15937;DHT22;9163;48.818;8.976;2023-07-24T07:54:04;18.60;99.90
15937;DHT22;9163;48.818;8.976;2023-07-24T07:56:31;18.60;99.90
15937;DHT22;9163;48.818;8.976;2023-07-24T07:58:59;18.50;99.90
15937;DHT22;9163;48.818;8.976;2023-07-24T08:01:26;18.50;99.90
15937;DHT22;9163;48.818;8.976;2023-07-24T08:03:54;18.50;99.90
15937;DHT22;9163;48.818;8.976;2023-07-24T08:06:22;18.50;99.90
15937;DHT22;9163;48.818;8.976;2023-07-24T08:08:50;18.50;99.90
15937;DHT22;9163;48.818;8.976;2023-07-24T08:11:17;18.60;99.90
15937;DHT22;9163;48.818;8.976;2023-07-24T08:13:45;18.70;99.90
15937;DHT22;9163;48.818;8.976;2023-07-24T08:16:13;18.70;99.90
15937;DHT22;9163;48.818;8.976;2023-07-24T08:18:44;18.60;99.90
15937;DHT22;9163;48.818;8.976;2023-07-24T08:21:14;18.60;99.90
15937;DHT22;9163;48.818;8.976;2023-07-24T08:23:41;18.50;99.90
15937;DHT22;9163;48.818;8.976;2023-07-24T08:26:09;18.30;99.90
15937;DHT22;9163;48.818;8.976;2023-07-24T08:28:36;18.30;99.90
15937;DHT22;9163;48.818;8.976;2023-07-24T08:31:08;18.20;99.90
15937;DHT22;9163;48.818;8.976;2023-07-24T08:33:35;18.30;99.90
15937;DHT22;9163;48.818;8.976;2023-07-24T08:36:04;18.40;99.90
15937;DHT22;9163;48.818;8.976;2023-07-24T08:38:34;18.40;99.90
15937;DHT22;9163;48.818;8.976;2023-07-24T08:41:05;18.50;99.90
15937;DHT22;9163;48.818;8.976;2023-07-24T08:43:34;18.60;99.90
15937;DHT22;9163;48.818;8.976;2023-07-24T08:46:03;18.70;99.90
15937;DHT22;9163;48.818;8.976;2023-07-24T08:48:32;18.70;99.90
15937;DHT22;9163;48.818;8.976;2023-07-24T08:51:02;18.80;99.90
15937;DHT22;9163;48.818;8.976;2023-07-24T08:53:30;18.80;99.90
15937;DHT22;9163;48.818;8.976;2023-07-24T08:55:59;18.80;99.90
15937;DHT22;9163;48.818;8.976;2023-07-24T08:58:27;18.90;99.90
15937;DHT22;9163;48.818;8.976;2023-07-24T09:00:56;19.00;99.90
15937;DHT22;9163;48.818;8.976;2023-07-24T09:03:24;18.90;99.90
15937;DHT22;9163;48.818;8.976;2023-07-24T09:05:51;19.00;99.90
15937;DHT22;9163;48.818;8.976;2023-07-24T09:08:28;19.10;99.90
15937;DHT22;9163;48.818;8.976;2023-07-24T09:10:56;19.50;99.90
15937;DHT22;9163;48.818;8.976;2023-07-24T09:13:25;19.60;99.90
15937;DHT22;9163;48.818;8.976;2023-07-24T09:15:52;19.70;99.90
15937;DHT22;9163;48.818;8.976;2023-07-24T09:18:21;19.90;99.90
15937;DHT22;9163;48.818;8.976;2023-07-24T09:20:49;20.30;99.90
15937;DHT22;9163;48.818;8.976;2023-07-24T09:23:25;20.60;99.90
15937;DHT22;9163;48.818;8.976;2023-07-24T09:25:53;20.90;99.90
15937;DHT22;9163;48.818;8.976;2023-07-24T09:28:20;21.00;99.90
15937;DHT22;9163;48.818;8.976;2023-07-24T09:30:56;20.60;99.90
15937;DHT22;9163;48.818;8.976;2023-07-24T09:33:34;20.30;99.90
15937;DHT22;9163;48.818;8.976;2023-07-24T09:36:02;20.30;99.90
15937;DHT22;9163;48.818;8.976;2023-07-24T09:38:30;20.50;99.90
15937;DHT22;9163;48.818;8.976;2023-07-24T09:40:57;20.60;99.90
15937;DHT22;9163;48.818;8.976;2023-07-24T09:43:25;20.60;99.90
15937;DHT22;9163;48.818;8.976;2023-07-24T09:45:55;20.70;99.90
15937;DHT22;9163;48.818;8.976;2023-07-24T09:48:26;20.50;99.90
15937;DHT22;9163;48.818;8.976;2023-07-24T09:50:55;20.30;99.90
15937;DHT22;9163;48.818;8.976;2023-07-24T09:53:31;20.10;99.90
15937;DHT22;9163;48.818;8.976;2023-07-24T09:56:01;20.10;99.90
15937;DHT22;9163;48.818;8.976;2023-07-24T09:58:29;20.00;99.90
15937;DHT22;9163;48.818;8.976;2023-07-24T10:00:58;19.90;99.90
15937;DHT22;9163;48.818;8.976;2023-07-24T10:03:25;19.70;99.90
15937;DHT22;9163;48.818;8.976;2023-07-24T10:05:54;19.60;99.90
15937;DHT22;9163;48.818;8.976;2023-07-24T10:08:21;19.50;99.90
15937;DHT22;9163;48.818;8.976;2023-07-24T10:10:49;19.50;99.90
15937;DHT22;9163;48.818;8.976;2023-07-24T10:13:19;19.40;99.90
15937;DHT22;9163;48.818;8.976;2023-07-24T10:15:48;19.40;99.90
15937;DHT22;9163;48.818;8.976;2023-07-24T10:18:17;19.40;99.90
15937;DHT22;9163;48.818;8.976;2023-07-24T10:20:45;19.30;99.90
15937;DHT22;9163;48.818;8.976;2023-07-24T10:23:17;19.20;99.90
15937;DHT22;9163;48.818;8.976;2023-07-24T10:25:45;19.20;99.90
15937;DHT22;9163;48.818;8.976;2023-07-24T10:28:13;19.10;99.90
15937;DHT22;9163;48.818;8.976;2023-07-24T10:30:42;19.10;99.90
15937;DHT22;9163;48.818;8.976;2023-07-24T10:33:11;19.00;99.90
15937;DHT22;9163;48.818;8.976;2023-07-24T10:35:42;19.00;99.90
15937;DHT22;9163;48.818;8.976;2023-07-24T10:38:10;18.90;99.90
15937;DHT22;9163;48.818;8.976;2023-07-24T10:40:39;18.80;99.90
15937;DHT22;9163;48.818;8.976;2023-07-24T10:43:07;18.80;99.90
15937;DHT22;9163;48.818;8.976;2023-07-24T10:45:48;18.70;99.90
15937;DHT22;9163;48.818;8.976;2023-07-24T10:48:16;18.60;99.90
15937;DHT22;9163;48.818;8.976;2023-07-24T10:50:46;18.60;99.90
15937;DHT22;9163;48.818;8.976;2023-07-24T10:53:15;18.60;99.90
15937;DHT22;9163;48.818;8.976;2023-07-24T10:55:43;18.60;99.90
15937;DHT22;9163;48.818;8.976;2023-07-24T10:58:12;18.50;99.90
15937;DHT22;9163;48.818;8.976;2023-07-24T11:00:39;18.50;99.90
15937;DHT22;9163;48.818;8.976;2023-07-24T11:03:08;18.50;99.90
15937;DHT22;9163;48.818;8.976;2023-07-24T11:05:39;18.40;99.90
15937;DHT22;9163;48.818;8.976;2023-07-24T11:08:12;18.40;99.90
15937;DHT22;9163;48.818;8.976;2023-07-24T11:10:44;18.30;99.90
15937;DHT22;9163;48.818;8.976;2023-07-24T11:13:13;18.30;99.90
15937;DHT22;9163;48.818;8.976;2023-07-24T11:15:40;18.30;99.90
15937;DHT22;9163;48.818;8.976;2023-07-24T11:18:08;18.30;99.90
15937;DHT22;9163;48.818;8.976;2023-07-24T11:20:37;18.20;99.90
15937;DHT22;9163;48.818;8.976;2023-07-24T11:23:05;18.30;99.90
15937;DHT22;9163;48.818;8.976;2023-07-24T11:25:33;18.20;99.90
15937;DHT22;9163;48.818;8.976;2023-07-24T11:28:01;18.20;99.90
15937;DHT22;9163;48.818;8.976;2023-07-24T11:30:30;18.30;99.90
15937;DHT22;9163;48.818;8.976;2023-07-24T11:33:00;18.40;99.90
15937;DHT22;9163;48.818;8.976;2023-07-24T11:35:27;18.60;99.90
15937;DHT22;9163;48.818;8.976;2023-07-24T11:37:55;18.90;99.90
15937;DHT22;9163;48.818;8.976;2023-07-24T11:40:31;18.90;99.90
15937;DHT22;9163;48.818;8.976;2023-07-24T11:43:00;19.00;99.90
15937;DHT22;9163;48.818;8.976;2023-07-24T11:45:27;19.10;99.90
15937;DHT22;9163;48.818;8.976;2023-07-24T11:47:55;19.10;99.90
15937;DHT22;9163;48.818;8.976;2023-07-24T11:50:23;18.90;99.90
15937;DHT22;9163;48.818;8.976;2023-07-24T11:52:51;18.80;99.90
15937;DHT22;9163;48.818;8.976;2023-07-24T11:55:30;18.70;99.90
15937;DHT22;9163;48.818;8.976;2023-07-24T11:58:00;18.70;99.90
15937;DHT22;9163;48.818;8.976;2023-07-24T12:00:27;18.70;99.90
15937;DHT22;9163;48.818;8.976;2023-07-24T12:02:59;18.60;99.90
15937;DHT22;9163;48.818;8.976;2023-07-24T12:05:27;18.60;99.90
15937;DHT22;9163;48.818;8.976;2023-07-24T12:07:54;18.70;99.90
15937;DHT22;9163;48.818;8.976;2023-07-24T12:10:26;18.70;99.90
15937;DHT22;9163;48.818;8.976;2023-07-24T12:12:57;18.70;99.90
15937;DHT22;9163;48.818;8.976;2023-07-24T12:15:26;18.70;99.90
15937;DHT22;9163;48.818;8.976;2023-07-24T12:17:53;18.60;99.90
15937;DHT22;9163;48.818;8.976;2023-07-24T12:20:23;18.60;99.90
15937;DHT22;9163;48.818;8.976;2023-07-24T12:22:50;18.60;99.90
15937;DHT22;9163;48.818;8.976;2023-07-24T12:25:17;18.60;99.90
15937;DHT22;9163;48.818;8.976;2023-07-24T12:27:45;18.60;99.90
15937;DHT22;9163;48.818;8.976;2023-07-24T12:30:13;18.60;99.90
15937;DHT22;9163;48.818;8.976;2023-07-24T12:32:41;18.60;99.90
15937;DHT22;9163;48.818;8.976;2023-07-24T12:35:11;18.60;99.90
15937;DHT22;9163;48.818;8.976;2023-07-24T12:37:38;18.80;99.90
15937;DHT22;9163;48.818;8.976;2023-07-24T12:40:07;18.70;99.90
15937;DHT22;9163;48.818;8.976;2023-07-24T12:42:34;18.70;99.90
15937;DHT22;9163;48.818;8.976;2023-07-24T12:45:02;18.90;99.90
15937;DHT22;9163;48.818;8.976;2023-07-24T12:47:30;19.10;99.90
15937;DHT22;9163;48.818;8.976;2023-07-24T12:49:59;19.20;99.90
15937;DHT22;9163;48.818;8.976;2023-07-24T12:52:28;19.50;99.90
15937;DHT22;9163;48.818;8.976;2023-07-24T12:54:55;19.70;99.90
15937;DHT22;9163;48.818;8.976;2023-07-24T12:57:23;19.70;99.90
15937;DHT22;9163;48.818;8.976;2023-07-24T12:59:52;19.70;99.90
15937;DHT22;9163;48.818;8.976;2023-07-24T13:02:19;19.80;99.90
15937;DHT22;9163;48.818;8.976;2023-07-24T13:04:46;19.80;99.90
15937;DHT22;9163;48.818;8.976;2023-07-24T13:07:15;19.90;99.90
15937;DHT22;9163;48.818;8.976;2023-07-24T13:09:42;19.90;99.90
15937;DHT22;9163;48.818;8.976;2023-07-24T13:12:10;20.00;99.90
15937;DHT22;9163;48.818;8.976;2023-07-24T13:14:37;20.10;99.90
15937;DHT22;9163;48.818;8.976;2023-07-24T13:17:04;20.20;99.90
15937;DHT22;9163;48.818;8.976;2023-07-24T13:19:31;20.20;99.90
15937;DHT22;9163;48.818;8.976;2023-07-24T13:21:59;20.20;99.90
15937;DHT22;9163;48.818;8.976;2023-07-24T13:24:27;20.40;99.90
15937;DHT22;9163;48.818;8.976;2023-07-24T13:26:54;20.20;99.90
15937;DHT22;9163;48.818;8.976;2023-07-24T13:29:22;20.30;99.90
15937;DHT22;9163;48.818;8.976;2023-07-24T13:31:50;20.30;99.90
15937;DHT22;9163;48.818;8.976;2023-07-24T13:34:18;20.60;99.90
15937;DHT22;9163;48.818;8.976;2023-07-24T13:36:46;21.10;99.90
15937;DHT22;9163;48.818;8.976;2023-07-24T13:39:13;21.30;99.90
15937;DHT22;9163;48.818;8.976;2023-07-24T13:41:42;21.40;99.90
15937;DHT22;9163;48.818;8.976;2023-07-24T13:44:09;21.40;99.90
15937;DHT22;9163;48.818;8.976;2023-07-24T13:46:37;21.50;99.90
15937;DHT22;9163;48.818;8.976;2023-07-24T13:49:04;21.60;99.90
15937;DHT22;9163;48.818;8.976;2023-07-24T13:51:31;22.10;99.90
15937;DHT22;9163;48.818;8.976;2023-07-24T13:53:58;22.20;99.90
15937;DHT22;9163;48.818;8.976;2023-07-24T13:56:25;22.40;99.90
15937;DHT22;9163;48.818;8.976;2023-07-24T13:58:56;22.60;61.00
15937;DHT22;9163;48.818;8.976;2023-07-24T14:01:24;22.80;66.50
15937;DHT22;9163;48.818;8.976;2023-07-24T14:03:51;22.90;52.80
15937;DHT22;9163;48.818;8.976;2023-07-24T14:06:18;23.00;49.60
15937;DHT22;9163;48.818;8.976;2023-07-24T14:08:45;23.00;55.10
15937;DHT22;9163;48.818;8.976;2023-07-24T14:11:13;23.00;45.50
15937;DHT22;9163;48.818;8.976;2023-07-24T14:13:40;22.90;49.50
15937;DHT22;9163;48.818;8.976;2023-07-24T14:16:08;22.90;46.70
15937;DHT22;9163;48.818;8.976;2023-07-24T14:18:36;22.80;42.20
15937;DHT22;9163;48.818;8.976;2023-07-24T14:21:03;22.60;38.20
15937;DHT22;9163;48.818;8.976;2023-07-24T14:23:30;22.50;37.20
15937;DHT22;9163;48.818;8.976;2023-07-24T14:25:57;22.50;46.10
15937;DHT22;9163;48.818;8.976;2023-07-24T14:28:25;22.40;54.20
15937;DHT22;9163;48.818;8.976;2023-07-24T14:30:52;22.50;52.00
15937;DHT22;9163;48.818;8.976;2023-07-24T14:33:20;22.60;39.80
15937;DHT22;9163;48.818;8.976;2023-07-24T14:35:48;22.80;39.40
15937;DHT22;9163;48.818;8.976;2023-07-24T14:38:15;22.90;36.60
15937;DHT22;9163;48.818;8.976;2023-07-24T14:40:43;23.00;39.80
15937;DHT22;9163;48.818;8.976;2023-07-24T14:43:10;23.00;43.50
15937;DHT22;9163;48.818;8.976;2023-07-24T14:45:37;23.20;47.70
15937;DHT22;9163;48.818;8.976;2023-07-24T14:48:05;23.50;42.40
15937;DHT22;9163;48.818;8.976;2023-07-24T14:50:36;23.50;24.30
15937;DHT22;9163;48.818;8.976;2023-07-24T14:53:03;23.40;13.30
15937;DHT22;9163;48.818;8.976;2023-07-24T14:55:30;23.10;21.30
15937;DHT22;9163;48.818;8.976;2023-07-24T14:57:57;23.10;14.30
15937;DHT22;9163;48.818;8.976;2023-07-24T15:00:25;23.00;17.60
15937;DHT22;9163;48.818;8.976;2023-07-24T15:02:52;22.90;15.30
15937;DHT22;9163;48.818;8.976;2023-07-24T15:05:19;22.80;16.50
15937;DHT22;9163;48.818;8.976;2023-07-24T15:07:48;22.80;21.30
15937;DHT22;9163;48.818;8.976;2023-07-24T15:10:15;22.70;22.10
15937;DHT22;9163;48.818;8.976;2023-07-24T15:12:42;22.60;21.00
15937;DHT22;9163;48.818;8.976;2023-07-24T15:15:10;22.30;19.90
15937;DHT22;9163;48.818;8.976;2023-07-24T15:17:37;22.20;26.90
15937;DHT22;9163;48.818;8.976;2023-07-24T15:20:05;22.20;25.70
15937;DHT22;9163;48.818;8.976;2023-07-24T15:22:34;22.20;27.30
15937;DHT22;9163;48.818;8.976;2023-07-24T15:25:03;22.10;37.40
15937;DHT22;9163;48.818;8.976;2023-07-24T15:27:31;22.10;21.00
15937;DHT22;9163;48.818;8.976;2023-07-24T15:29:58;22.10;15.20
15937;DHT22;9163;48.818;8.976;2023-07-24T15:32:25;22.10;22.20
15937;DHT22;9163;48.818;8.976;2023-07-24T15:34:53;22.10;25.10
15937;DHT22;9163;48.818;8.976;2023-07-24T15:37:20;22.00;24.90
15937;DHT22;9163;48.818;8.976;2023-07-24T15:39:47;21.90;24.50
15937;DHT22;9163;48.818;8.976;2023-07-24T15:42:16;21.80;21.30
15937;DHT22;9163;48.818;8.976;2023-07-24T15:44:43;21.70;29.30
15937;DHT22;9163;48.818;8.976;2023-07-24T15:47:10;21.60;32.20
15937;DHT22;9163;48.818;8.976;2023-07-24T15:49:38;21.60;34.40